sensor_id;sensor_type;location;lat;lon;timestamp;P1;durP1;ratioP1;P2;durP2;ratioP2
56319;SDS011;42226;42.382;23.748;2023-07-24T00:00:38;11.35;;;10.25;;
56319;SDS011;42226;42.382;23.748;2023-07-24T00:03:05;15.20;;;9.93;;
56319;SDS011;42226;42.382;23.748;2023-07-24T00:05:32;10.65;;;9.60;;
56319;SDS011;42226;42.382;23.748;2023-07-24T00:07:59;11.65;;;10.02;;
56319;SDS011;42226;42.382;23.748;2023-07-24T00:10:25;10.90;;;9.82;;
56319;SDS011;42226;42.382;23.748;2023-07-24T00:12:53;10.90;;;9.85;;
56319;SDS011;42226;42.382;23.748;2023-07-24T00:15:19;11.18;;;10.07;;
56319;SDS011;42226;42.382;23.748;2023-07-24T00:17:46;12.00;;;10.20;;
56319;SDS011;42226;42.382;23.748;2023-07-24T00:20:13;10.75;;;9.60;;
56319;SDS011;42226;42.382;23.748;2023-07-24T00:22:39;11.20;;;10.10;;
56319;SDS011;42226;42.382;23.748;2023-07-24T00:25:06;11.15;;;10.02;;
56319;SDS011;42226;42.382;23.748;2023-07-24T00:27:34;14.88;;;10.80;;
56319;SDS011;42226;42.382;23.748;2023-07-24T00:30:00;12.20;;;10.90;;
56319;SDS011;42226;42.382;23.748;2023-07-24T00:32:27;11.98;;;10.15;;
56319;SDS011;42226;42.382;23.748;2023-07-24T00:34:54;14.35;;;11.32;;
56319;SDS011;42226;42.382;23.748;2023-07-24T00:37:21;11.68;;;9.65;;
56319;SDS011;42226;42.382;23.748;2023-07-24T00:39:48;10.80;;;9.30;;
56319;SDS011;42226;42.382;23.748;2023-07-24T00:42:15;10.88;;;9.75;;
56319;SDS011;42226;42.382;23.748;2023-07-24T00:44:41;11.45;;;10.25;;
56319;SDS011;42226;42.382;23.748;2023-07-24T00:47:08;10.80;;;9.70;;
56319;SDS011;42226;42.382;23.748;2023-07-24T00:49:34;11.80;;;10.57;;
56319;SDS011;42226;42.382;23.748;2023-07-24T00:52:01;11.55;;;10.40;;
56319;SDS011;42226;42.382;23.748;2023-07-24T00:54:28;12.20;;;10.48;;
56319;SDS011;42226;42.382;23.748;2023-07-24T00:56:57;13.32;;;10.40;;
56319;SDS011;42226;42.382;23.748;2023-07-24T00:59:24;12.30;;;11.10;;
56319;SDS011;42226;42.382;23.748;2023-07-24T01:01:51;11.45;;;10.25;;
56319;SDS011;42226;42.382;23.748;2023-07-24T01:04:18;10.77;;;9.52;;
56319;SDS011;42226;42.382;23.748;2023-07-24T01:06:44;12.70;;;10.23;;
56319;SDS011;42226;42.382;23.748;2023-07-24T01:09:11;10.90;;;9.80;;
56319;SDS011;42226;42.382;23.748;2023-07-24T01:11:39;11.25;;;10.15;;
56319;SDS011;42226;42.382;23.748;2023-07-24T01:16:59;15.95;;;10.43;;
56319;SDS011;42226;42.382;23.748;2023-07-24T01:19:35;12.57;;;11.27;;
56319;SDS011;42226;42.382;23.748;2023-07-24T01:25:09;11.45;;;10.25;;
56319;SDS011;42226;42.382;23.748;2023-07-24T01:27:56;13.88;;;11.30;;
56319;SDS011;42226;42.382;23.748;2023-07-24T01:30:22;11.95;;;10.75;;
56319;SDS011;42226;42.382;23.748;2023-07-24T01:32:49;11.63;;;10.48;;
56319;SDS011;42226;42.382;23.748;2023-07-24T01:35:16;12.18;;;10.40;;
56319;SDS011;42226;42.382;23.748;2023-07-24T01:37:42;11.60;;;10.40;;
56319;SDS011;42226;42.382;23.748;2023-07-24T01:40:11;11.18;;;9.88;;
56319;SDS011;42226;42.382;23.748;2023-07-24T01:42:38;10.90;;;9.80;;
56319;SDS011;42226;42.382;23.748;2023-07-24T01:45:05;10.85;;;9.75;;
56319;SDS011;42226;42.382;23.748;2023-07-24T01:47:32;11.88;;;9.95;;
56319;SDS011;42226;42.382;23.748;2023-07-24T01:49:58;10.70;;;9.60;;
56319;SDS011;42226;42.382;23.748;2023-07-24T01:52:25;11.07;;;9.98;;
56319;SDS011;42226;42.382;23.748;2023-07-24T01:54:52;10.98;;;9.88;;
56319;SDS011;42226;42.382;23.748;2023-07-24T01:57:18;10.63;;;9.52;;
56319;SDS011;42226;42.382;23.748;2023-07-24T01:59:45;10.45;;;9.43;;
56319;SDS011;42226;42.382;23.748;2023-07-24T02:02:11;11.52;;;9.63;;
56319;SDS011;42226;42.382;23.748;2023-07-24T02:04:38;12.23;;;10.32;;
56319;SDS011;42226;42.382;23.748;2023-07-24T02:07:05;10.95;;;9.60;;
56319;SDS011;42226;42.382;23.748;2023-07-24T02:09:31;11.73;;;10.50;;
56319;SDS011;42226;42.382;23.748;2023-07-24T02:11:58;10.90;;;9.80;;
56319;SDS011;42226;42.382;23.748;2023-07-24T02:14:24;10.95;;;9.85;;
56319;SDS011;42226;42.382;23.748;2023-07-24T02:16:51;11.00;;;9.88;;
56319;SDS011;42226;42.382;23.748;2023-07-24T02:19:18;11.82;;;10.52;;
56319;SDS011;42226;42.382;23.748;2023-07-24T02:21:44;10.75;;;9.75;;
56319;SDS011;42226;42.382;23.748;2023-07-24T02:24:11;10.90;;;9.80;;
56319;SDS011;42226;42.382;23.748;2023-07-24T02:26:37;15.38;;;10.57;;
56319;SDS011;42226;42.382;23.748;2023-07-24T02:29:05;13.20;;;10.38;;
56319;SDS011;42226;42.382;23.748;2023-07-24T02:31:33;12.50;;;10.60;;
56319;SDS011;42226;42.382;23.748;2023-07-24T02:34:00;11.77;;;10.65;;
56319;SDS011;42226;42.382;23.748;2023-07-24T02:36:26;11.82;;;10.10;;
56319;SDS011;42226;42.382;23.748;2023-07-24T02:38:53;11.35;;;10.25;;
56319;SDS011;42226;42.382;23.748;2023-07-24T02:41:20;11.10;;;9.95;;
56319;SDS011;42226;42.382;23.748;2023-07-24T02:43:47;11.18;;;10.07;;
56319;SDS011;42226;42.382;23.748;2023-07-24T02:46:13;11.32;;;10.13;;
56319;SDS011;42226;42.382;23.748;2023-07-24T02:48:40;11.63;;;10.43;;
56319;SDS011;42226;42.382;23.748;2023-07-24T02:51:06;11.05;;;9.95;;
56319;SDS011;42226;42.382;23.748;2023-07-24T02:53:33;12.07;;;10.50;;
56319;SDS011;42226;42.382;23.748;2023-07-24T02:56:03;11.57;;;10.48;;
56319;SDS011;42226;42.382;23.748;2023-07-24T02:58:30;11.88;;;10.68;;
56319;SDS011;42226;42.382;23.748;2023-07-24T03:01:03;12.75;;;11.45;;
56319;SDS011;42226;42.382;23.748;2023-07-24T03:03:32;12.32;;;10.82;;
56319;SDS011;42226;42.382;23.748;2023-07-24T03:06:00;12.20;;;10.70;;
56319;SDS011;42226;42.382;23.748;2023-07-24T03:08:27;13.85;;;11.32;;
56319;SDS011;42226;42.382;23.748;2023-07-24T03:10:53;11.88;;;10.73;;
56319;SDS011;42226;42.382;23.748;2023-07-24T03:13:20;12.90;;;11.43;;
56319;SDS011;42226;42.382;23.748;2023-07-24T03:15:53;12.05;;;10.85;;
56319;SDS011;42226;42.382;23.748;2023-07-24T03:18:22;12.23;;;10.93;;
56319;SDS011;42226;42.382;23.748;2023-07-24T03:20:49;11.38;;;10.20;;
56319;SDS011;42226;42.382;23.748;2023-07-24T03:23:16;13.73;;;10.35;;
56319;SDS011;42226;42.382;23.748;2023-07-24T03:25:42;11.60;;;10.38;;
56319;SDS011;42226;42.382;23.748;2023-07-24T03:28:09;12.55;;;11.25;;
56319;SDS011;42226;42.382;23.748;2023-07-24T03:30:36;11.60;;;10.40;;
56319;SDS011;42226;42.382;23.748;2023-07-24T03:33:05;12.05;;;10.75;;
56319;SDS011;42226;42.382;23.748;2023-07-24T03:35:32;13.75;;;11.20;;
56319;SDS011;42226;42.382;23.748;2023-07-24T03:37:59;12.50;;;11.18;;
56319;SDS011;42226;42.382;23.748;2023-07-24T03:40:25;12.10;;;10.85;;
56319;SDS011;42226;42.382;23.748;2023-07-24T03:42:52;12.45;;;11.15;;
56319;SDS011;42226;42.382;23.748;2023-07-24T03:45:18;12.73;;;11.43;;
56319;SDS011;42226;42.382;23.748;2023-07-24T03:47:46;11.85;;;10.65;;
56319;SDS011;42226;42.382;23.748;2023-07-24T03:50:12;12.77;;;11.30;;
56319;SDS011;42226;42.382;23.748;2023-07-24T03:52:39;12.25;;;10.85;;
56319;SDS011;42226;42.382;23.748;2023-07-24T03:55:05;11.60;;;10.43;;
56319;SDS011;42226;42.382;23.748;2023-07-24T03:57:33;12.13;;;10.65;;
56319;SDS011;42226;42.382;23.748;2023-07-24T03:59:59;12.00;;;10.80;;
56319;SDS011;42226;42.382;23.748;2023-07-24T04:02:26;12.88;;;11.57;;
56319;SDS011;42226;42.382;23.748;2023-07-24T04:04:52;12.32;;;11.13;;
56319;SDS011;42226;42.382;23.748;2023-07-24T04:07:19;13.27;;;11.25;;
56319;SDS011;42226;42.382;23.748;2023-07-24T04:09:46;14.90;;;12.07;;
56319;SDS011;42226;42.382;23.748;2023-07-24T04:12:12;13.43;;;11.73;;
56319;SDS011;42226;42.382;23.748;2023-07-24T04:14:39;13.38;;;11.70;;
56319;SDS011;42226;42.382;23.748;2023-07-24T04:17:05;19.23;;;12.65;;
56319;SDS011;42226;42.382;23.748;2023-07-24T04:19:32;17.60;;;11.77;;
56319;SDS011;42226;42.382;23.748;2023-07-24T04:21:58;14.82;;;11.68;;
56319;SDS011;42226;42.382;23.748;2023-07-24T04:24:25;15.32;;;11.73;;
56319;SDS011;42226;42.382;23.748;2023-07-24T04:26:51;14.75;;;11.77;;
56319;SDS011;42226;42.382;23.748;2023-07-24T04:29:18;14.60;;;11.80;;
56319;SDS011;42226;42.382;23.748;2023-07-24T04:31:48;15.75;;;11.82;;
56319;SDS011;42226;42.382;23.748;2023-07-24T04:34:15;14.25;;;12.75;;
56319;SDS011;42226;42.382;23.748;2023-07-24T04:36:42;13.85;;;12.35;;
56319;SDS011;42226;42.382;23.748;2023-07-24T04:39:08;13.35;;;11.95;;
56319;SDS011;42226;42.382;23.748;2023-07-24T04:41:35;14.13;;;12.40;;
56319;SDS011;42226;42.382;23.748;2023-07-24T04:44:01;14.35;;;12.75;;
56319;SDS011;42226;42.382;23.748;2023-07-24T04:46:28;13.73;;;12.32;;
56319;SDS011;42226;42.382;23.748;2023-07-24T04:48:55;14.40;;;12.90;;
56319;SDS011;42226;42.382;23.748;2023-07-24T04:51:21;13.77;;;11.98;;
56319;SDS011;42226;42.382;23.748;2023-07-24T04:53:48;13.93;;;12.43;;
56319;SDS011;42226;42.382;23.748;2023-07-24T04:56:14;14.32;;;12.00;;
56319;SDS011;42226;42.382;23.748;2023-07-24T04:58:41;13.85;;;12.30;;
56319;SDS011;42226;42.382;23.748;2023-07-24T05:01:07;14.43;;;12.77;;
56319;SDS011;42226;42.382;23.748;2023-07-24T05:03:34;15.40;;;13.18;;
56319;SDS011;42226;42.382;23.748;2023-07-24T05:06:01;15.23;;;13.23;;
56319;SDS011;42226;42.382;23.748;2023-07-24T05:08:27;15.60;;;12.50;;
56319;SDS011;42226;42.382;23.748;2023-07-24T05:10:57;15.60;;;13.85;;
56319;SDS011;42226;42.382;23.748;2023-07-24T05:13:25;14.55;;;12.70;;
56319;SDS011;42226;42.382;23.748;2023-07-24T05:15:52;15.10;;;13.30;;
56319;SDS011;42226;42.382;23.748;2023-07-24T05:18:19;13.55;;;12.15;;
56319;SDS011;42226;42.382;23.748;2023-07-24T05:20:47;12.98;;;11.00;;
56319;SDS011;42226;42.382;23.748;2023-07-24T05:23:18;12.60;;;11.30;;
56319;SDS011;42226;42.382;23.748;2023-07-24T05:25:46;13.48;;;11.30;;
56319;SDS011;42226;42.382;23.748;2023-07-24T05:28:22;12.50;;;11.20;;
56319;SDS011;42226;42.382;23.748;2023-07-24T05:30:49;12.82;;;11.52;;
56319;SDS011;42226;42.382;23.748;2023-07-24T05:33:17;14.70;;;11.85;;
56319;SDS011;42226;42.382;23.748;2023-07-24T05:35:45;13.38;;;11.98;;
56319;SDS011;42226;42.382;23.748;2023-07-24T05:38:13;14.70;;;12.02;;
56319;SDS011;42226;42.382;23.748;2023-07-24T05:40:40;14.50;;;13.00;;
56319;SDS011;42226;42.382;23.748;2023-07-24T05:43:08;13.27;;;11.90;;
56319;SDS011;42226;42.382;23.748;2023-07-24T05:45:35;14.88;;;12.20;;
56319;SDS011;42226;42.382;23.748;2023-07-24T05:48:02;12.27;;;11.02;;
56319;SDS011;42226;42.382;23.748;2023-07-24T05:50:32;13.60;;;12.02;;
56319;SDS011;42226;42.382;23.748;2023-07-24T05:52:58;12.73;;;11.15;;
56319;SDS011;42226;42.382;23.748;2023-07-24T05:55:26;12.77;;;11.30;;
56319;SDS011;42226;42.382;23.748;2023-07-24T05:57:53;13.65;;;11.90;;
56319;SDS011;42226;42.382;23.748;2023-07-24T06:00:21;15.48;;;12.13;;
56319;SDS011;42226;42.382;23.748;2023-07-24T06:02:48;12.85;;;11.38;;
56319;SDS011;42226;42.382;23.748;2023-07-24T06:05:16;15.55;;;13.10;;
56319;SDS011;42226;42.382;23.748;2023-07-24T06:07:44;14.15;;;12.00;;
56319;SDS011;42226;42.382;23.748;2023-07-24T06:10:11;15.25;;;12.68;;
56319;SDS011;42226;42.382;23.748;2023-07-24T06:12:39;14.05;;;12.18;;
56319;SDS011;42226;42.382;23.748;2023-07-24T06:15:06;14.50;;;12.23;;
56319;SDS011;42226;42.382;23.748;2023-07-24T06:17:34;13.20;;;11.80;;
56319;SDS011;42226;42.382;23.748;2023-07-24T06:20:01;14.02;;;12.02;;
56319;SDS011;42226;42.382;23.748;2023-07-24T06:22:29;15.60;;;12.80;;
56319;SDS011;42226;42.382;23.748;2023-07-24T06:24:55;14.25;;;12.38;;
56319;SDS011;42226;42.382;23.748;2023-07-24T06:27:24;14.65;;;11.40;;
56319;SDS011;42226;42.382;23.748;2023-07-24T06:29:52;13.10;;;11.80;;
56319;SDS011;42226;42.382;23.748;2023-07-24T06:32:20;14.77;;;12.60;;
56319;SDS011;42226;42.382;23.748;2023-07-24T06:34:47;14.48;;;12.15;;
56319;SDS011;42226;42.382;23.748;2023-07-24T06:37:15;13.52;;;11.80;;
56319;SDS011;42226;42.382;23.748;2023-07-24T06:47:05;13.77;;;12.25;;
56319;SDS011;42226;42.382;23.748;2023-07-24T06:49:32;14.63;;;12.55;;
56319;SDS011;42226;42.382;23.748;2023-07-24T06:51:59;13.88;;;12.25;;
56319;SDS011;42226;42.382;23.748;2023-07-24T07:01:15;13.93;;;12.43;;
56319;SDS011;42226;42.382;23.748;2023-07-24T07:07:17;15.80;;;12.43;;
56319;SDS011;42226;42.382;23.748;2023-07-24T07:09:45;13.98;;;11.98;;
56319;SDS011;42226;42.382;23.748;2023-07-24T07:12:13;14.38;;;12.13;;
56319;SDS011;42226;42.382;23.748;2023-07-24T07:14:41;15.38;;;12.60;;
56319;SDS011;42226;42.382;23.748;2023-07-24T07:17:07;16.40;;;12.30;;
56319;SDS011;42226;42.382;23.748;2023-07-24T07:19:34;13.88;;;12.45;;
56319;SDS011;42226;42.382;23.748;2023-07-24T07:22:02;14.23;;;12.07;;
56319;SDS011;42226;42.382;23.748;2023-07-24T07:24:30;14.48;;;12.00;;
56319;SDS011;42226;42.382;23.748;2023-07-24T07:26:57;14.45;;;12.43;;
56319;SDS011;42226;42.382;23.748;2023-07-24T07:29:23;14.35;;;11.80;;
56319;SDS011;42226;42.382;23.748;2023-07-24T07:31:51;14.60;;;11.52;;
56319;SDS011;42226;42.382;23.748;2023-07-24T07:34:17;12.68;;;11.38;;
56319;SDS011;42226;42.382;23.748;2023-07-24T07:36:45;11.88;;;10.68;;
56319;SDS011;42226;42.382;23.748;2023-07-24T07:39:13;13.15;;;10.95;;
56319;SDS011;42226;42.382;23.748;2023-07-24T07:41:40;12.18;;;10.77;;
56319;SDS011;42226;42.382;23.748;2023-07-24T07:44:08;12.15;;;10.95;;
56319;SDS011;42226;42.382;23.748;2023-07-24T07:46:35;15.60;;;11.77;;
56319;SDS011;42226;42.382;23.748;2023-07-24T07:49:03;13.38;;;11.73;;
56319;SDS011;42226;42.382;23.748;2023-07-24T07:51:30;12.60;;;11.35;;
56319;SDS011;42226;42.382;23.748;2023-07-24T07:53:57;12.55;;;11.25;;
56319;SDS011;42226;42.382;23.748;2023-07-24T07:56:24;15.27;;;12.07;;
56319;SDS011;42226;42.382;23.748;2023-07-24T07:58:51;13.75;;;12.27;;
56319;SDS011;42226;42.382;23.748;2023-07-24T08:01:21;12.68;;;11.32;;
56319;SDS011;42226;42.382;23.748;2023-07-24T08:03:50;12.70;;;11.35;;
56319;SDS011;42226;42.382;23.748;2023-07-24T08:06:17;13.10;;;10.82;;
56319;SDS011;42226;42.382;23.748;2023-07-24T08:08:45;13.63;;;10.60;;
56319;SDS011;42226;42.382;23.748;2023-07-24T08:14:54;12.35;;;10.95;;
56319;SDS011;42226;42.382;23.748;2023-07-24T08:17:23;13.10;;;10.93;;
56319;SDS011;42226;42.382;23.748;2023-07-24T08:25:53;11.80;;;10.60;;
56319;SDS011;42226;42.382;23.748;2023-07-24T08:28:31;13.27;;;11.25;;
56319;SDS011;42226;42.382;23.748;2023-07-24T08:44:39;11.63;;;10.40;;
56319;SDS011;42226;42.382;23.748;2023-07-24T08:47:22;12.85;;;10.93;;
56319;SDS011;42226;42.382;23.748;2023-07-24T08:49:50;13.52;;;11.48;;
56319;SDS011;42226;42.382;23.748;2023-07-24T09:13:05;12.98;;;11.02;;
56319;SDS011;42226;42.382;23.748;2023-07-24T09:22:31;12.15;;;10.68;;
56319;SDS011;42226;42.382;23.748;2023-07-24T09:24:59;13.40;;;11.80;;
56319;SDS011;42226;42.382;23.748;2023-07-24T09:27:29;14.90;;;11.48;;
56319;SDS011;42226;42.382;23.748;2023-07-24T09:29:56;12.48;;;10.95;;
56319;SDS011;42226;42.382;23.748;2023-07-24T09:32:25;15.10;;;11.43;;
56319;SDS011;42226;42.382;23.748;2023-07-24T09:34:53;14.77;;;11.40;;
56319;SDS011;42226;42.382;23.748;2023-07-24T09:37:25;13.60;;;11.95;;
56319;SDS011;42226;42.382;23.748;2023-07-24T09:39:53;13.13;;;11.75;;
56319;SDS011;42226;42.382;23.748;2023-07-24T09:42:29;14.40;;;12.13;;
56319;SDS011;42226;42.382;23.748;2023-07-24T09:44:58;15.20;;;13.15;;
56319;SDS011;42226;42.382;23.748;2023-07-24T09:47:26;14.88;;;12.88;;
56319;SDS011;42226;42.382;23.748;2023-07-24T09:49:53;15.00;;;12.95;;
56319;SDS011;42226;42.382;23.748;2023-07-24T09:52:21;14.43;;;12.90;;
56319;SDS011;42226;42.382;23.748;2023-07-24T09:55:02;15.20;;;13.40;;
56319;SDS011;42226;42.382;23.748;2023-07-24T09:57:38;15.88;;;12.43;;
56319;SDS011;42226;42.382;23.748;2023-07-24T10:00:06;16.58;;;13.07;;
56319;SDS011;42226;42.382;23.748;2023-07-24T10:02:35;15.15;;;13.25;;
56319;SDS011;42226;42.382;23.748;2023-07-24T10:05:03;15.00;;;13.23;;
56319;SDS011;42226;42.382;23.748;2023-07-24T10:07:31;15.32;;;12.10;;
56319;SDS011;42226;42.382;23.748;2023-07-24T10:09:58;14.13;;;12.70;;
56319;SDS011;42226;42.382;23.748;2023-07-24T10:12:27;16.45;;;13.07;;
56319;SDS011;42226;42.382;23.748;2023-07-24T10:14:55;14.85;;;12.18;;
56319;SDS011;42226;42.382;23.748;2023-07-24T10:17:40;15.27;;;11.77;;
56319;SDS011;42226;42.382;23.748;2023-07-24T10:20:11;14.13;;;12.27;;
56319;SDS011;42226;42.382;23.748;2023-07-24T10:22:42;13.43;;;11.75;;
56319;SDS011;42226;42.382;23.748;2023-07-24T10:25:09;13.63;;;11.35;;
56319;SDS011;42226;42.382;23.748;2023-07-24T10:27:43;15.93;;;11.80;;
56319;SDS011;42226;42.382;23.748;2023-07-24T10:32:49;14.20;;;12.25;;
56319;SDS011;42226;42.382;23.748;2023-07-24T10:35:18;14.82;;;11.65;;
56319;SDS011;42226;42.382;23.748;2023-07-24T10:37:47;15.15;;;11.07;;
56319;SDS011;42226;42.382;23.748;2023-07-24T10:40:24;12.30;;;10.70;;
56319;SDS011;42226;42.382;23.748;2023-07-24T10:43:01;15.82;;;11.30;;
56319;SDS011;42226;42.382;23.748;2023-07-24T10:46:07;14.32;;;10.95;;
56319;SDS011;42226;42.382;23.748;2023-07-24T10:48:28;13.38;;;11.15;;
56319;SDS011;42226;42.382;23.748;2023-07-24T10:50:55;14.18;;;10.85;;
56319;SDS011;42226;42.382;23.748;2023-07-24T10:53:22;15.40;;;10.60;;
56319;SDS011;42226;42.382;23.748;2023-07-24T10:55:50;15.00;;;11.10;;
56319;SDS011;42226;42.382;23.748;2023-07-24T10:58:18;13.95;;;10.50;;
56319;SDS011;42226;42.382;23.748;2023-07-24T11:00:46;14.48;;;11.60;;
56319;SDS011;42226;42.382;23.748;2023-07-24T11:03:14;15.18;;;11.30;;
56319;SDS011;42226;42.382;23.748;2023-07-24T11:05:44;14.10;;;11.63;;
56319;SDS011;42226;42.382;23.748;2023-07-24T11:08:16;13.27;;;10.88;;
56319;SDS011;42226;42.382;23.748;2023-07-24T11:10:49;15.25;;;10.05;;
56319;SDS011;42226;42.382;23.748;2023-07-24T11:13:27;11.20;;;7.85;;
56319;SDS011;42226;42.382;23.748;2023-07-24T11:15:55;11.50;;;7.88;;
56319;SDS011;42226;42.382;23.748;2023-07-24T11:18:23;10.23;;;7.32;;
56319;SDS011;42226;42.382;23.748;2023-07-24T11:20:53;10.07;;;7.75;;
56319;SDS011;42226;42.382;23.748;2023-07-24T11:23:22;12.02;;;7.90;;
56319;SDS011;42226;42.382;23.748;2023-07-24T11:25:51;14.35;;;8.27;;
56319;SDS011;42226;42.382;23.748;2023-07-24T11:28:19;12.70;;;7.97;;
56319;SDS011;42226;42.382;23.748;2023-07-24T11:30:47;13.00;;;8.02;;
56319;SDS011;42226;42.382;23.748;2023-07-24T11:33:18;12.88;;;8.10;;
56319;SDS011;42226;42.382;23.748;2023-07-24T11:35:47;11.23;;;7.80;;
56319;SDS011;42226;42.382;23.748;2023-07-24T11:38:14;9.40;;;7.50;;
56319;SDS011;42226;42.382;23.748;2023-07-24T11:40:44;10.98;;;7.63;;
56319;SDS011;42226;42.382;23.748;2023-07-24T11:43:19;10.80;;;7.57;;
56319;SDS011;42226;42.382;23.748;2023-07-24T11:45:50;11.73;;;7.80;;
56319;SDS011;42226;42.382;23.748;2023-07-24T11:48:22;10.38;;;7.55;;
56319;SDS011;42226;42.382;23.748;2023-07-24T11:50:51;10.82;;;7.63;;
56319;SDS011;42226;42.382;23.748;2023-07-24T11:53:27;9.13;;;7.50;;
56319;SDS011;42226;42.382;23.748;2023-07-24T11:55:59;12.82;;;8.13;;
56319;SDS011;42226;42.382;23.748;2023-07-24T11:58:29;12.18;;;8.50;;
56319;SDS011;42226;42.382;23.748;2023-07-24T12:00:57;10.80;;;8.43;;
56319;SDS011;42226;42.382;23.748;2023-07-24T12:03:28;12.02;;;8.73;;
56319;SDS011;42226;42.382;23.748;2023-07-24T12:05:56;13.85;;;8.95;;
56319;SDS011;42226;42.382;23.748;2023-07-24T12:08:33;9.55;;;8.23;;
56319;SDS011;42226;42.382;23.748;2023-07-24T12:11:02;12.27;;;8.73;;
56319;SDS011;42226;42.382;23.748;2023-07-24T12:13:29;13.20;;;9.30;;
56319;SDS011;42226;42.382;23.748;2023-07-24T12:15:59;10.32;;;8.00;;
56319;SDS011;42226;42.382;23.748;2023-07-24T12:18:27;11.18;;;8.13;;
56319;SDS011;42226;42.382;23.748;2023-07-24T12:21:11;10.20;;;8.70;;
56319;SDS011;42226;42.382;23.748;2023-07-24T12:23:39;10.07;;;8.53;;
56319;SDS011;42226;42.382;23.748;2023-07-24T12:26:06;13.00;;;9.38;;
56319;SDS011;42226;42.382;23.748;2023-07-24T12:28:34;12.98;;;9.13;;
56319;SDS011;42226;42.382;23.748;2023-07-24T12:31:02;12.32;;;9.45;;
56319;SDS011;42226;42.382;23.748;2023-07-24T12:33:30;16.00;;;9.07;;
56319;SDS011;42226;42.382;23.748;2023-07-24T12:35:57;12.27;;;9.35;;
56319;SDS011;42226;42.382;23.748;2023-07-24T12:38:24;10.85;;;8.43;;
56319;SDS011;42226;42.382;23.748;2023-07-24T12:40:52;11.00;;;8.85;;
56319;SDS011;42226;42.382;23.748;2023-07-24T12:43:18;10.30;;;8.90;;
56319;SDS011;42226;42.382;23.748;2023-07-24T12:45:46;12.88;;;8.35;;
56319;SDS011;42226;42.382;23.748;2023-07-24T12:48:12;9.68;;;8.07;;
56319;SDS011;42226;42.382;23.748;2023-07-24T12:50:40;10.77;;;8.60;;
56319;SDS011;42226;42.382;23.748;2023-07-24T12:53:08;12.95;;;9.10;;
56319;SDS011;42226;42.382;23.748;2023-07-24T12:55:35;15.23;;;8.90;;
56319;SDS011;42226;42.382;23.748;2023-07-24T12:58:03;10.40;;;8.60;;
56319;SDS011;42226;42.382;23.748;2023-07-24T13:00:30;15.10;;;9.60;;
56319;SDS011;42226;42.382;23.748;2023-07-24T13:02:58;11.70;;;9.98;;
56319;SDS011;42226;42.382;23.748;2023-07-24T13:05:25;12.73;;;9.20;;
56319;SDS011;42226;42.382;23.748;2023-07-24T13:07:53;15.10;;;9.68;;
56319;SDS011;42226;42.382;23.748;2023-07-24T13:10:19;11.30;;;9.52;;
56319;SDS011;42226;42.382;23.748;2023-07-24T13:12:47;12.27;;;9.43;;
56319;SDS011;42226;42.382;23.748;2023-07-24T13:15:14;10.68;;;8.70;;
56319;SDS011;42226;42.382;23.748;2023-07-24T13:17:42;12.35;;;9.38;;
56319;SDS011;42226;42.382;23.748;2023-07-24T13:20:10;12.73;;;9.48;;
56319;SDS011;42226;42.382;23.748;2023-07-24T13:22:37;11.32;;;9.15;;
56319;SDS011;42226;42.382;23.748;2023-07-24T13:25:04;10.52;;;9.13;;
56319;SDS011;42226;42.382;23.748;2023-07-24T13:27:31;14.65;;;9.90;;
56319;SDS011;42226;42.382;23.748;2023-07-24T13:33:04;11.77;;;10.32;;
56319;SDS011;42226;42.382;23.748;2023-07-24T13:35:30;13.95;;;9.40;;
56319;SDS011;42226;42.382;23.748;2023-07-24T13:38:10;11.63;;;9.23;;
56319;SDS011;42226;42.382;23.748;2023-07-24T13:40:39;13.27;;;9.60;;
56319;SDS011;42226;42.382;23.748;2023-07-24T13:43:07;13.63;;;10.27;;
56319;SDS011;42226;42.382;23.748;2023-07-24T13:45:33;12.95;;;9.73;;
56319;SDS011;42226;42.382;23.748;2023-07-24T13:48:03;12.40;;;9.65;;
56319;SDS011;42226;42.382;23.748;2023-07-24T13:50:30;11.50;;;9.93;;
56319;SDS011;42226;42.382;23.748;2023-07-24T13:52:58;15.30;;;10.18;;
56319;SDS011;42226;42.382;23.748;2023-07-24T13:55:24;12.88;;;10.07;;
56319;SDS011;42226;42.382;23.748;2023-07-24T13:57:51;12.98;;;9.15;;
56319;SDS011;42226;42.382;23.748;2023-07-24T14:00:19;12.90;;;9.73;;
56319;SDS011;42226;42.382;23.748;2023-07-24T14:02:46;15.98;;;10.27;;
56319;SDS011;42226;42.382;23.748;2023-07-24T14:05:15;11.23;;;9.02;;
56319;SDS011;42226;42.382;23.748;2023-07-24T14:07:43;12.25;;;9.18;;
56319;SDS011;42226;42.382;23.748;2023-07-24T14:10:11;12.18;;;9.60;;
56319;SDS011;42226;42.382;23.748;2023-07-24T14:12:38;12.70;;;10.35;;
56319;SDS011;42226;42.382;23.748;2023-07-24T14:15:05;11.13;;;9.23;;
56319;SDS011;42226;42.382;23.748;2023-07-24T14:17:32;11.10;;;9.30;;
56319;SDS011;42226;42.382;23.748;2023-07-24T14:20:02;11.80;;;9.82;;
56319;SDS011;42226;42.382;23.748;2023-07-24T14:22:29;11.00;;;9.80;;
56319;SDS011;42226;42.382;23.748;2023-07-24T14:24:57;16.30;;;10.32;;
56319;SDS011;42226;42.382;23.748;2023-07-24T14:27:25;15.93;;;10.10;;
56319;SDS011;42226;42.382;23.748;2023-07-24T14:29:52;16.33;;;11.07;;
56319;SDS011;42226;42.382;23.748;2023-07-24T14:32:20;13.27;;;9.60;;
56319;SDS011;42226;42.382;23.748;2023-07-24T14:34:50;11.77;;;9.18;;
56319;SDS011;42226;42.382;23.748;2023-07-24T14:37:19;14.15;;;9.90;;
56319;SDS011;42226;42.382;23.748;2023-07-24T14:39:47;10.00;;;8.20;;
56319;SDS011;42226;42.382;23.748;2023-07-24T14:42:16;12.15;;;9.77;;
56319;SDS011;42226;42.382;23.748;2023-07-24T14:44:43;10.27;;;9.13;;
56319;SDS011;42226;42.382;23.748;2023-07-24T14:47:11;12.13;;;9.63;;
56319;SDS011;42226;42.382;23.748;2023-07-24T14:49:38;11.75;;;9.02;;
56319;SDS011;42226;42.382;23.748;2023-07-24T14:52:05;12.77;;;9.30;;
56319;SDS011;42226;42.382;23.748;2023-07-24T14:54:32;12.98;;;9.63;;
56319;SDS011;42226;42.382;23.748;2023-07-24T14:57:00;13.00;;;9.15;;
56319;SDS011;42226;42.382;23.748;2023-07-24T14:59:28;13.30;;;9.77;;
56319;SDS011;42226;42.382;23.748;2023-07-24T15:01:56;11.82;;;9.23;;
56319;SDS011;42226;42.382;23.748;2023-07-24T15:04:23;11.38;;;8.77;;
56319;SDS011;42226;42.382;23.748;2023-07-24T15:06:51;11.73;;;9.18;;
56319;SDS011;42226;42.382;23.748;2023-07-24T15:09:19;10.55;;;8.82;;
56319;SDS011;42226;42.382;23.748;2023-07-24T15:11:45;9.88;;;8.88;;
56319;SDS011;42226;42.382;23.748;2023-07-24T15:14:13;10.70;;;9.55;;
56319;SDS011;42226;42.382;23.748;2023-07-24T15:16:40;12.65;;;8.48;;
56319;SDS011;42226;42.382;23.748;2023-07-24T15:19:07;10.32;;;8.20;;
56319;SDS011;42226;42.382;23.748;2023-07-24T15:21:34;13.48;;;9.02;;
56319;SDS011;42226;42.382;23.748;2023-07-24T15:24:01;11.02;;;8.48;;
56319;SDS011;42226;42.382;23.748;2023-07-24T15:26:28;9.73;;;8.73;;
56319;SDS011;42226;42.382;23.748;2023-07-24T15:28:56;10.75;;;8.82;;
56319;SDS011;42226;42.382;23.748;2023-07-24T15:31:23;10.35;;;8.85;;
56319;SDS011;42226;42.382;23.748;2023-07-24T15:33:50;9.10;;;8.13;;
56319;SDS011;42226;42.382;23.748;2023-07-24T15:36:17;9.95;;;8.57;;
56319;SDS011;42226;42.382;23.748;2023-07-24T15:38:44;9.63;;;8.60;;